Accueil
METAR-TAF:

METAR-TAF

Aéroports :

Nelson Lagoon, Alaska, États-Unis

latitude: 56-00-27N, longitude: 161-09-37W, altitude: 4 m

Observation

Le bulletin a été fait il y a 9 minutes, à 13:56 UTC
Vent 25 kt de sud avec des rafales jusqu'à 32 kt
Température 1°C
Humidité 86%
Pression 1000 hPa
Visibilité: 16.1 km
Quelques nuages à une hauteur de 4000 ft
Ciel couvert à une hauteur de 12000 ft

METAR: PAOU 291356Z AUTO 18025G32KT 10SM FEW040 OVC120 01/M01 A2953 RMK AO2 PK WND 18039/1308 SLP998 T00111011 FZRANO

Heure: 05:05 (14:05 UTC)


TAF: absent

Observations et prévisions météorologiques de plus de 4000 aéroports (messages METAR et TAF).

Les stations disponibles sont représentées par des disques jaunes et rouges sur la carte.

Passer la souris dessus pour voir le nom de la station.

Cliquer dessus pour voir les observations et prévisions météorologiques.

Pour changer de carte: cliquez sur les boutons verts avec une croix noire pour zoomer, sur le bouton vert avec un tiret pour effectuer un zoom arrière, ou sur les flèches vertes pour les cartes adjacentes.


METAR-TAF: